PDT,Max TemperatureF,Mean TemperatureF,Min TemperatureF,Max Dew PointF,MeanDew PointF,Min DewpointF,Max Humidity, Mean Humidity, Min Humidity, Max Sea Level PressureIn, Mean Sea Level PressureIn, Min Sea Level PressureIn, Max VisibilityMiles, Mean VisibilityMiles, Min VisibilityMiles, Max Wind SpeedMPH, Mean Wind SpeedMPH, Max Gust SpeedMPH,PrecipitationIn, CloudCover, Events, WindDirDegrees
2012-5-1,53,42,32,34,30,28,87,63,38,29.99,29.96,29.93,10,10,7,24,13,32,0.00,4,,190
2012-5-2,53,43,33,34,30,27,87,62,35,30.03,29.95,29.79,10,10,10,13,6,16,0.00,5,,195
2012-5-3,51,46,42,41,37,30,76,72,53,29.97,29.74,29.64,10,10,7,13,2,16,0.67,7,,338
2012-5-4,51,43,35,39,34,28,76,67,50,30.38,30.16,29.96,10,10,9,13,8,17,0.06,5,,178
2012-5-5,53,43,33,37,32,27,76,64,41,30.54,30.49,30.38,10,10,5,8,1,,0.01,6,,143
2012-5-6,62,46,30,39,34,25,86,59,37,30.53,30.47,30.39,10,10,1,10,4,16,0.00,0,,34
2012-5-7,71,46,17,39,35,28,100,54,27,30.40,30.27,30.13,10,10,7,10,4,,0.00,0,,37
2012-5-8,60,44,28,46,39,30,100,76,59,30.20,30.16,30.11,10,10,5,9,2,,0.00,5,,94
2012-5-9,53,42,30,37,36,30,100,72,47,30.38,30.28,30.18,10,10,10,16,4,21,0.00,6,,121
2012-5-10,53,38,23,36,31,23,100,68,41,30.47,30.41,30.35,10,10,10,13,2,16,0.00,2,,27
2012-5-11,62,44,26,36,32,27,100,56,32,30.37,30.30,30.21,10,10,3,14,8,20,0.00,0,,26
2012-5-12,75,60,46,39,32,23,51,36,22,30.25,30.20,30.14,10,10,10,15,9,18,0.00,0,,32
2012-5-13,78,52,26,43,37,28,100,46,26,30.22,30.15,30.07,10,10,10,14,6,20,0.00,0,,31
2012-5-14,78,56,33,48,42,32,100,48,29,30.10,30.06,30.01,10,10,8,12,6,16,0.00,0,,43
2012-5-15,73,58,44,52,46,37,93,66,43,30.15,30.10,30.05,10,8,2,13,5,,0.00,2,,144
2012-5-16,66,52,39,46,40,36,87,63,42,30.14,30.10,30.06,10,10,10,10,3,,0.00,2,,172
2012-5-17,62,50,39,45,39,36,93,68,45,30.11,30.07,30.01,10,9,5,9,4,,0.00,6,,181
2012-5-18,60,48,33,39,37,30,100,72,38,30.22,30.16,30.09,10,10,5,13,4,17,0.00,6,,167
2012-5-19,66,47,28,43,36,28,100,68,32,30.16,30.11,30.06,10,10,1,7,1,,0.00,2,,33
2012-5-20,55,52,48,52,47,39,94,82,58,30.10,30.04,29.98,10,8,1,12,3,,0.33,8,,198
2012-5-21,55,52,48,54,49,43,94,87,76,30.00,29.90,29.81,10,9,3,22,6,28,0.64,7,,198
2012-5-22,51,45,39,46,44,39,100,88,76,29.97,29.94,29.90,10,9,2,18,11,22,0.40,7,,192
2012-5-23,59,44,28,45,41,37,100,84,51,30.02,30.00,29.94,10,10,10,24,13,31,0.16,5,,195
2012-5-24,60,50,39,46,40,36,100,71,42,30.01,29.90,29.83,10,10,10,10,4,,0.00,6,,142
2012-5-25,71,48,26,46,40,30,100,64,29,29.94,29.91,29.88,10,10,7,14,2,22,0.00,0,,48
2012-5-26,71,55,39,52,45,36,100,69,41,29.99,29.92,29.89,10,10,1,17,3,25,0.00,1,,203
2012-5-27,62,54,46,45,43,41,87,70,48,30.09,30.06,29.99,10,10,10,16,12,21,0.00,6,,193
2012-5-28,60,51,42,46,41,37,93,68,45,30.16,30.11,30.08,10,10,10,18,8,25,0.00,6,,195
2012-5-29,59,47,35,43,39,34,100,73,45,30.21,30.18,30.15,10,10,10,7,2,,0.00,5,,180
2012-5-30,64,55,46,50,43,37,88,68,45,30.28,30.23,30.18,10,10,7,8,2,,0.00,4,,205
2012-5-31,62,56,51,54,51,46,94,83,68,30.18,30.13,30.04,10,10,4,16,6,21,0.02,8,,191